createdAt,value
2019-05-07T00:00:36.489Z,39.69
2019-05-07T00:01:36.478Z,39.59
2019-05-07T00:02:36.464Z,39.39
2019-05-07T00:03:36.473Z,40.29
2019-05-07T00:04:36.443Z,40.29
2019-05-07T00:05:36.431Z,40.41
2019-05-07T00:06:36.419Z,39.51
2019-05-07T00:07:36.409Z,40.01
2019-05-07T00:08:36.418Z,40.41
2019-05-07T00:09:36.388Z,40.01
2019-05-07T00:10:36.376Z,40.61
2019-05-07T00:11:36.364Z,41.01
2019-05-07T00:12:36.354Z,40.41
2019-05-07T00:13:36.365Z,40.41
2019-05-07T00:14:36.335Z,40.41
2019-05-07T00:15:36.321Z,40.51
2019-05-07T00:16:36.309Z,40.21
2019-05-07T00:17:36.297Z,40.31
2019-05-07T00:18:36.307Z,40.31
2019-05-07T00:19:43.232Z,40.41
2019-05-07T00:20:36.264Z,40.41
2019-05-07T00:21:36.257Z,40.11
2019-05-07T00:22:36.246Z,40.01
2019-05-07T00:23:36.232Z,40.41
2019-05-07T00:24:36.246Z,40.41
2019-05-07T00:25:36.212Z,40.51
2019-05-07T00:26:36.200Z,40.21
2019-05-07T00:27:36.187Z,40.41
2019-05-07T00:28:36.175Z,41.21
2019-05-07T00:29:36.192Z,40.41
2019-05-07T00:30:36.153Z,40.21
2019-05-07T00:31:36.146Z,40.41
2019-05-07T00:32:36.131Z,40.31
2019-05-07T00:33:36.121Z,40.21
2019-05-07T00:34:36.136Z,40.11
2019-05-07T00:35:36.098Z,41.01
2019-05-07T00:36:36.087Z,41.11
2019-05-07T00:37:36.078Z,40.21
2019-05-07T00:38:36.065Z,41.11
2019-05-07T00:39:36.079Z,40.21
2019-05-07T00:40:36.046Z,40.21
2019-05-07T00:41:36.032Z,40.21
2019-05-07T00:42:36.028Z,40.31
2019-05-07T00:43:36.015Z,40.91
2019-05-07T00:44:36.020Z,40.61
2019-05-07T00:45:35.988Z,40.81
2019-05-07T00:46:35.977Z,40.41
2019-05-07T00:47:35.970Z,40.01
2019-05-07T00:48:35.958Z,40.41
2019-05-07T00:49:35.969Z,40.41
2019-05-07T00:50:35.934Z,40.11
2019-05-07T00:51:35.922Z,40.11
2019-05-07T00:52:35.914Z,40.51
2019-05-07T00:53:35.903Z,40.61
2019-05-07T00:54:35.913Z,40.51
2019-05-07T00:55:35.883Z,40.61
2019-05-07T00:56:35.872Z,40.71
2019-05-07T00:57:35.854Z,40.51
2019-05-07T00:58:35.843Z,40.21
2019-05-07T00:59:35.875Z,40.41
2019-05-07T01:00:35.821Z,40.41
2019-05-07T01:01:35.810Z,40.41
2019-05-07T01:02:35.808Z,40.51
2019-05-07T01:03:35.788Z,40.31
2019-05-07T01:04:35.783Z,39.91
2019-05-07T01:05:35.789Z,40.01
2019-05-07T01:06:35.757Z,39.89
2019-05-07T01:07:35.744Z,39.89
2019-05-07T01:08:35.736Z,39.79
2019-05-07T01:09:35.726Z,39.79
2019-05-07T01:10:35.736Z,40.11
2019-05-07T01:11:35.711Z,39.79
2019-05-07T01:12:35.689Z,40.29
2019-05-07T01:13:35.677Z,39.69
2019-05-07T01:14:35.666Z,39.59
2019-05-07T01:15:35.680Z,39.51
2019-05-07T01:16:35.647Z,39.39
2019-05-07T01:17:35.633Z,39.59
2019-05-07T01:18:35.625Z,39.59
2019-05-07T01:19:35.615Z,39.89
2019-05-07T01:20:35.620Z,39.91
2019-05-07T01:21:35.588Z,39.49
2019-05-07T01:22:35.581Z,39.69
2019-05-07T01:23:35.568Z,40.29
2019-05-07T01:24:35.556Z,39.59
2019-05-07T01:25:35.565Z,40.29
2019-05-07T01:26:35.539Z,39.39
2019-05-07T01:27:35.523Z,40.29
2019-05-07T01:28:35.511Z,39.79
2019-05-07T01:29:35.499Z,40.11
2019-05-07T01:30:35.509Z,39.49
2019-05-07T01:31:35.477Z,39.99
2019-05-07T01:32:35.466Z,39.79
2019-05-07T01:33:35.456Z,39.79
2019-05-07T01:34:35.447Z,39.79
2019-05-07T01:35:35.455Z,39.79
2019-05-07T01:36:35.443Z,39.79
2019-05-07T01:37:35.412Z,39.79
2019-05-07T01:38:35.400Z,39.79
2019-05-07T01:39:35.392Z,39.79
2019-05-07T01:40:35.377Z,39.79
2019-05-07T01:41:35.391Z,39.69
2019-05-07T01:42:36.705Z,39.79
2019-05-07T01:43:35.344Z,39.79
2019-05-07T01:44:35.337Z,39.99
2019-05-07T01:45:45.541Z,39.79
2019-05-07T01:46:36.330Z,39.79
2019-05-07T01:47:35.304Z,39.89
2019-05-07T01:48:35.293Z,39.79
2019-05-07T01:49:35.277Z,39.79
2019-05-07T01:50:35.267Z,39.79
2019-05-07T01:51:35.277Z,39.79
2019-05-07T01:52:35.248Z,39.79
2019-05-07T01:53:35.237Z,39.79
2019-05-07T01:54:35.223Z,39.89
2019-05-07T01:55:35.214Z,40.09
2019-05-07T01:56:35.221Z,39.89
2019-05-07T01:57:35.189Z,40.09
2019-05-07T01:58:35.182Z,39.99
2019-05-07T01:59:35.170Z,39.89
2019-05-07T02:00:35.159Z,39.89
2019-05-07T02:01:35.894Z,39.89
2019-05-07T02:02:35.135Z,39.89
2019-05-07T02:03:35.125Z,39.89
2019-05-07T02:04:35.111Z,40.09
2019-05-07T02:05:35.101Z,39.89
2019-05-07T02:06:35.113Z,39.89
2019-05-07T02:07:35.082Z,40.09
2019-05-07T02:08:35.067Z,40.19
2019-05-07T02:09:35.055Z,40.29
2019-05-07T02:10:35.045Z,40.39
2019-05-07T02:11:35.056Z,39.69
2019-05-07T02:12:35.043Z,39.99
2019-05-07T02:13:35.011Z,40.29
2019-05-07T02:14:35.004Z,40.29
2019-05-07T02:15:34.989Z,40.09
2019-05-07T02:16:34.983Z,40.29
2019-05-07T02:17:34.992Z,40.29
2019-05-07T02:18:34.955Z,39.18
2019-05-07T02:19:34.948Z,40.39
2019-05-07T02:20:34.937Z,39.99
2019-05-07T02:21:34.922Z,39.29
2019-05-07T02:22:34.938Z,39.29
2019-05-07T02:23:34.902Z,40.29
2019-05-07T02:24:34.893Z,39.69
2019-05-07T02:25:34.882Z,40.09
2019-05-07T02:26:34.868Z,39.99
2019-05-07T02:27:34.881Z,40.29
2019-05-07T02:28:34.845Z,39.99
2019-05-07T02:29:34.835Z,39.89
2019-05-07T02:30:35.452Z,39.79
2019-05-07T02:31:34.815Z,39.99
2019-05-07T02:32:34.823Z,39.69
2019-05-07T02:33:35.191Z,40.29
2019-05-07T02:34:34.793Z,39.99
2019-05-07T02:35:34.770Z,39.09
2019-05-07T02:36:34.759Z,40.29
2019-05-07T02:37:46.880Z,40.09
2019-05-07T02:38:35.734Z,38.89
2019-05-07T02:39:34.727Z,39.99
2019-05-07T02:40:34.717Z,39.39
2019-05-07T02:41:34.707Z,40.19
2019-05-07T02:42:34.730Z,39.59
2019-05-07T02:43:34.682Z,40.39
2019-05-07T02:44:34.681Z,40.29
2019-05-07T02:45:34.664Z,39.69
2019-05-07T02:46:36.200Z,39.79
2019-05-07T02:47:34.636Z,40.09
2019-05-07T02:48:34.650Z,40.17
2019-05-07T02:49:34.615Z,40.19
2019-05-07T02:50:34.606Z,39.59
2019-05-07T02:51:34.595Z,40.19
2019-05-07T02:52:34.584Z,40.09
2019-05-07T02:53:34.594Z,40.29
2019-05-07T02:54:34.573Z,40.09
2019-05-07T02:55:34.551Z,40.39
2019-05-07T02:56:34.535Z,40.09
2019-05-07T02:57:34.534Z,40.19
2019-05-07T02:58:34.542Z,40.19
2019-05-07T02:59:34.505Z,39.59
2019-05-07T03:00:34.504Z,40.27
2019-05-07T03:01:34.480Z,40.09
2019-05-07T03:02:34.471Z,40.29
2019-05-07T03:03:34.480Z,40.17
2019-05-07T03:04:34.446Z,39.99
2019-05-07T03:05:35.085Z,40.29
2019-05-07T03:06:34.424Z,40.17
2019-05-07T03:07:34.419Z,39.99
2019-05-07T03:08:34.434Z,39.99
2019-05-07T03:09:34.390Z,39.89
2019-05-07T03:10:34.570Z,40.37
2019-05-07T03:11:34.375Z,40.17
2019-05-07T03:12:34.359Z,39.57
2019-05-07T03:13:34.348Z,39.39
2019-05-07T03:14:34.358Z,39.39
2019-05-07T03:15:34.345Z,40.17
2019-05-07T03:16:42.559Z,39.89
2019-05-07T03:17:35.300Z,40.07
2019-05-07T03:18:34.295Z,39.77
2019-05-07T03:19:34.304Z,40.17
2019-05-07T03:20:34.273Z,40.37
2019-05-07T03:21:34.258Z,40.17
2019-05-07T03:22:34.247Z,40.19
2019-05-07T03:23:34.318Z,39.79
2019-05-07T03:24:34.575Z,40.37
2019-05-07T03:25:34.215Z,39.97
2019-05-07T03:26:34.262Z,39.99
2019-05-07T03:27:34.431Z,40.39
2019-05-07T03:28:34.192Z,40.19
2019-05-07T03:29:34.190Z,39.49
2019-05-07T03:30:36.037Z,39.97
2019-05-07T03:31:36.166Z,40.37
2019-05-07T03:32:37.995Z,39.17
2019-05-07T03:33:36.586Z,39.87
2019-05-07T03:34:37.050Z,39.77
2019-05-07T03:35:37.041Z,39.89
2019-05-07T03:36:35.404Z,40.39
2019-05-07T03:37:36.388Z,39.49
2019-05-07T03:38:34.091Z,39.89
2019-05-07T03:39:34.066Z,40.27
2019-05-07T03:40:34.071Z,39.79
2019-05-07T03:41:34.036Z,39.89
2019-05-07T03:42:34.029Z,40.39
2019-05-07T03:43:34.017Z,40.39
2019-05-07T03:44:34.061Z,40.17
2019-05-07T03:45:34.014Z,40.17
2019-05-07T03:46:33.980Z,39.99
2019-05-07T03:47:33.970Z,40.17
2019-05-07T03:48:33.975Z,40.19
2019-05-07T03:49:34.430Z,40.29
2019-05-07T03:50:34.006Z,40.29
2019-05-07T03:51:33.926Z,39.97
2019-05-07T03:52:33.913Z,39.77
2019-05-07T03:53:34.349Z,39.79
2019-05-07T03:54:34.336Z,40.39
2019-05-07T03:55:33.948Z,40.19
2019-05-07T03:56:33.870Z,40.37
2019-05-07T03:57:33.892Z,40.39
2019-05-07T03:58:34.281Z,40.17
2019-05-07T03:59:34.475Z,40.37
2019-05-07T04:00:33.851Z,39.99
2019-05-07T04:01:33.814Z,39.89
2019-05-07T04:02:33.803Z,40.17
2019-05-07T04:03:34.529Z,39.87
2019-05-07T04:04:33.785Z,39.77
2019-05-07T04:05:34.361Z,39.87
2019-05-07T04:06:33.760Z,39.79
2019-05-07T04:07:33.923Z,40.07
2019-05-07T04:08:33.879Z,39.77
2019-05-07T04:09:33.747Z,39.77
2019-05-07T04:10:34.106Z,39.77
2019-05-07T04:11:33.906Z,40.07
2019-05-07T04:12:34.412Z,40.29
2019-05-07T04:13:34.042Z,39.57
2019-05-07T04:14:34.581Z,39.79
2019-05-07T04:15:33.663Z,39.79
2019-05-07T04:16:33.669Z,39.79
2019-05-07T04:17:34.129Z,39.77
2019-05-07T04:18:33.630Z,39.59
2019-05-07T04:19:33.614Z,39.59
2019-05-07T04:20:33.671Z,39.67
2019-05-07T04:21:34.437Z,40.07
2019-05-07T04:22:34.600Z,39.79
2019-05-07T04:23:34.494Z,39.77
2019-05-07T04:24:33.567Z,39.57
2019-05-07T04:25:34.564Z,39.79
2019-05-07T04:26:34.077Z,39.67
2019-05-07T04:27:33.549Z,39.67
2019-05-07T04:28:33.868Z,39.77
2019-05-07T04:29:35.081Z,39.79
2019-05-07T04:30:33.493Z,39.89
2019-05-07T04:31:34.373Z,39.77
2019-05-07T04:32:33.625Z,39.79
2019-05-07T04:33:33.645Z,39.77
2019-05-07T04:34:33.753Z,39.77
2019-05-07T04:35:33.709Z,39.79
2019-05-07T04:36:34.269Z,39.77
2019-05-07T04:37:33.503Z,39.97
2019-05-07T04:38:33.621Z,39.77
2019-05-07T04:39:33.589Z,39.77
2019-05-07T04:40:33.930Z,39.77
2019-05-07T04:41:33.401Z,39.77
2019-05-07T04:42:33.631Z,39.67
2019-05-07T04:43:33.839Z,39.77
2019-05-07T04:44:33.446Z,39.77
2019-05-07T04:45:34.006Z,39.57
2019-05-07T04:46:33.860Z,39.57
2019-05-07T04:47:42.534Z,39.57
2019-05-07T04:48:34.403Z,39.59
2019-05-07T04:49:33.404Z,39.57
2019-05-07T04:50:42.651Z,39.77
2019-05-07T04:51:34.284Z,39.97
2019-05-07T04:52:33.805Z,39.67
2019-05-07T04:53:33.237Z,39.87
2019-05-07T04:54:33.227Z,39.67
2019-05-07T04:55:33.672Z,39.27
2019-05-07T04:56:33.853Z,39.87
2019-05-07T04:57:33.221Z,39.87
2019-05-07T04:58:34.078Z,39.77
2019-05-07T04:59:33.273Z,39.27
2019-05-07T05:00:33.747Z,39.87
2019-05-07T05:01:33.151Z,39.77
2019-05-07T05:02:33.172Z,39.17
2019-05-07T05:03:34.618Z,39.27
2019-05-07T05:04:34.979Z,39.37
2019-05-07T05:05:33.219Z,39.67
2019-05-07T05:06:33.160Z,39.67
2019-05-07T05:07:33.575Z,39.87
2019-05-07T05:08:33.076Z,39.27
2019-05-07T05:09:33.294Z,39.17
2019-05-07T05:10:33.684Z,39.07
2019-05-07T05:11:33.719Z,39.27
2019-05-07T05:12:33.048Z,39.67
2019-05-07T05:13:33.408Z,39.67
2019-05-07T05:14:33.981Z,39.47
2019-05-07T05:15:33.001Z,39.07
2019-05-07T05:16:32.982Z,39.39
2019-05-07T05:17:46.779Z,39.18
2019-05-07T05:18:33.965Z,37.98
2019-05-07T05:19:32.949Z,38.31
2019-05-07T05:20:33.619Z,38.31
2019-05-07T05:21:32.933Z,38.32
2019-05-07T05:22:32.944Z,38.53
2019-05-07T05:23:32.915Z,38.04
2019-05-07T05:24:33.123Z,38.54
2019-05-07T05:25:32.881Z,39.56
2019-05-07T05:26:32.874Z,39.18
2019-05-07T05:27:32.881Z,39.28
2019-05-07T05:28:32.849Z,40.06
2019-05-07T05:29:32.842Z,39.97
2019-05-07T05:30:32.831Z,39.26
2019-05-07T05:31:33.212Z,39.66
2019-05-07T05:32:32.903Z,39.97
2019-05-07T05:33:32.848Z,40.25
2019-05-07T05:34:33.036Z,40.25
2019-05-07T05:35:32.770Z,39.75
2019-05-07T05:36:33.166Z,39.14
2019-05-07T05:37:32.753Z,39.14
2019-05-07T05:38:33.092Z,39.14
2019-05-07T05:39:32.773Z,39.34
2019-05-07T05:40:32.716Z,39.34
2019-05-07T05:41:34.034Z,39.14
2019-05-07T05:42:33.085Z,39.14
2019-05-07T05:43:32.744Z,39.14
2019-05-07T05:44:32.673Z,39.75
2019-05-07T05:45:33.459Z,39.84
2019-05-07T05:46:32.693Z,39.25
2019-05-07T05:47:33.055Z,39.56
2019-05-07T05:48:33.304Z,39.47
2019-05-07T05:49:32.619Z,39.97
2019-05-07T05:50:33.189Z,40.06
2019-05-07T05:51:32.680Z,39.36
2019-05-07T05:52:32.885Z,40.06
2019-05-07T05:53:32.849Z,40.37
2019-05-07T05:54:32.563Z,39.95
2019-05-07T05:55:32.550Z,40.25
2019-05-07T05:56:32.616Z,41.85
2019-05-07T05:57:32.556Z,41.25
2019-05-07T05:58:32.634Z,41.15
2019-05-07T05:59:46.897Z,41.05
2019-05-07T06:00:33.498Z,41.35
2019-05-07T06:01:32.484Z,41.03
2019-05-07T06:02:32.570Z,41.13
2019-05-07T06:03:32.462Z,41.55
2019-05-07T06:04:32.965Z,40.55
2019-05-07T06:05:34.376Z,40.43
2019-05-07T06:06:32.781Z,40.03
2019-05-07T06:07:32.419Z,40.53
2019-05-07T06:08:32.684Z,41.03
2019-05-07T06:09:32.905Z,40.83
2019-05-07T06:10:32.981Z,40.83
2019-05-07T06:11:32.375Z,41.23
2019-05-07T06:12:32.882Z,40.93
2019-05-07T06:13:32.437Z,40.63
2019-05-07T06:14:33.052Z,40.33
2019-05-07T06:15:32.772Z,40.23
2019-05-07T06:16:32.916Z,40.43
2019-05-07T06:17:32.310Z,40.43
2019-05-07T06:18:32.782Z,39.42
2019-05-07T06:19:32.859Z,40.13
2019-05-07T06:20:32.281Z,40.23
2019-05-07T06:21:32.397Z,39.62
2019-05-07T06:22:33.069Z,39.73
2019-05-07T06:23:32.982Z,39.83
2019-05-07T06:24:32.262Z,40.01
2019-05-07T06:25:33.479Z,39.71
2019-05-07T06:26:32.207Z,40.33
2019-05-07T06:27:32.595Z,40.43
2019-05-07T06:28:32.997Z,40.03
2019-05-07T06:29:33.017Z,40.11
2019-05-07T06:30:33.801Z,40.21
2019-05-07T06:31:32.778Z,39.81
2019-05-07T06:32:32.141Z,39.73
2019-05-07T06:33:32.518Z,39.51
2019-05-07T06:34:34.124Z,40.01
2019-05-07T06:35:32.514Z,40.21
2019-05-07T06:36:32.870Z,40.11
2019-05-07T06:37:32.256Z,40.01
2019-05-07T06:38:32.147Z,40.21
2019-05-07T06:39:32.771Z,40.01
2019-05-07T06:40:32.325Z,40.41
2019-05-07T06:41:32.279Z,40.01
2019-05-07T06:42:33.208Z,40.11
2019-05-07T06:43:32.638Z,39.61
2019-05-07T06:44:32.128Z,39.31
2019-05-07T06:45:35.115Z,39.31
2019-05-07T06:46:32.354Z,39.11
2019-05-07T06:47:32.071Z,39.31
2019-05-07T06:48:41.888Z,39.81
2019-05-07T06:49:32.956Z,39.81
2019-05-07T06:50:32.725Z,40.01
2019-05-07T06:51:32.778Z,39.11
2019-05-07T06:52:32.096Z,39.11
2019-05-07T06:53:33.373Z,39.11
2019-05-07T06:54:32.178Z,39.31
2019-05-07T06:55:32.507Z,39.11
2019-05-07T06:56:32.585Z,39.21
2019-05-07T06:57:32.965Z,39.11
2019-05-07T06:58:32.671Z,39.11
2019-05-07T06:59:34.610Z,39.31
2019-05-07T07:00:32.038Z,39.40
2019-05-07T07:01:32.429Z,40.41
2019-05-07T07:02:32.822Z,39.61
2019-05-07T07:03:32.767Z,40.31
2019-05-07T07:04:33.154Z,39.61
2019-05-07T07:05:32.993Z,39.81
2019-05-07T07:06:32.260Z,39.21
2019-05-07T07:07:36.484Z,39.31
2019-05-07T07:08:32.744Z,39.51
2019-05-07T07:09:32.905Z,39.12
2019-05-07T07:10:32.345Z,39.32
2019-05-07T07:11:32.041Z,39.12
2019-05-07T07:12:33.105Z,39.34
2019-05-07T07:13:32.252Z,40.45
2019-05-07T07:14:33.131Z,40.45
2019-05-07T07:15:32.139Z,40.06
2019-05-07T07:16:32.576Z,40.48
2019-05-07T07:17:32.650Z,40.41
2019-05-07T07:18:32.354Z,41.51
2019-05-07T07:19:33.126Z,40.83
2019-05-07T07:20:32.603Z,42.13
2019-05-07T07:21:32.676Z,41.83
2019-05-07T07:22:32.085Z,41.55
2019-05-07T07:23:32.377Z,42.05
2019-05-07T07:24:32.943Z,42.38
2019-05-07T07:25:32.549Z,41.87
2019-05-07T07:26:32.771Z,41.89
2019-05-07T07:27:32.216Z,42.21
2019-05-07T07:28:32.650Z,44.35
2019-05-07T07:29:32.442Z,44.25
2019-05-07T07:30:32.599Z,44.65
2019-05-07T07:31:32.001Z,44.35
2019-05-07T07:32:31.817Z,43.85
2019-05-07T07:33:32.053Z,44.23
2019-05-07T07:34:33.247Z,43.62
2019-05-07T07:35:32.167Z,44.01
2019-05-07T07:36:32.067Z,43.71
2019-05-07T07:37:33.323Z,44.33
2019-05-07T07:38:32.841Z,44.01
2019-05-07T07:39:32.307Z,45.42
2019-05-07T07:40:32.739Z,45.62
2019-05-07T07:41:32.680Z,44.73
2019-05-07T07:42:32.004Z,45.54
2019-05-07T07:43:32.543Z,46.14
2019-05-07T07:44:33.005Z,45.66
2019-05-07T07:45:32.405Z,48.28
2019-05-07T07:46:33.025Z,46.17
2019-05-07T07:47:32.943Z,46.77
2019-05-07T07:48:32.117Z,48.46
2019-05-07T07:49:32.939Z,47.55
2019-05-07T07:50:33.007Z,47.83
2019-05-07T07:51:38.951Z,47.03
2019-05-07T07:52:32.453Z,45.90
2019-05-07T07:53:35.182Z,45.29
2019-05-07T07:54:32.103Z,45.29
2019-05-07T07:55:33.007Z,45.59
2019-05-07T07:56:48.361Z,45.09
2019-05-07T07:57:32.516Z,45.21
2019-05-07T07:58:32.195Z,45.52
2019-05-07T07:59:32.873Z,45.54
2019-05-07T08:00:32.835Z,45.44
2019-05-07T08:01:32.990Z,45.34
2019-05-07T08:02:32.250Z,44.63
2019-05-07T08:03:32.947Z,45.44
2019-05-07T08:04:32.046Z,45.44
2019-05-07T08:05:32.531Z,45.34
2019-05-07T08:06:32.662Z,45.54
2019-05-07T08:07:33.055Z,45.54
2019-05-07T08:08:32.011Z,45.03
2019-05-07T08:09:32.408Z,44.02
2019-05-07T08:10:32.553Z,44.33
2019-05-07T08:11:31.988Z,44.33
2019-05-07T08:12:32.498Z,44.51
2019-05-07T08:13:32.447Z,44.61
2019-05-07T08:14:32.463Z,43.30
2019-05-07T08:15:33.040Z,43.60
2019-05-07T08:16:32.809Z,44.01
2019-05-07T08:17:32.672Z,43.80
2019-05-07T08:18:32.805Z,43.40
2019-05-07T08:19:32.848Z,43.71
2019-05-07T08:20:32.694Z,43.71
2019-05-07T08:21:33.044Z,44.01
2019-05-07T08:22:32.967Z,43.62
2019-05-07T08:23:31.955Z,43.93
2019-05-07T08:24:32.083Z,44.83
2019-05-07T08:25:32.162Z,44.93
2019-05-07T08:26:32.348Z,45.24
2019-05-07T08:27:32.546Z,45.06
2019-05-07T08:28:31.962Z,44.53
2019-05-07T08:29:32.561Z,45.44
2019-05-07T08:30:32.705Z,45.54
2019-05-07T08:31:32.061Z,44.93
2019-05-07T08:32:32.662Z,44.33
2019-05-07T08:33:32.284Z,43.93
2019-05-07T08:34:32.496Z,44.43
2019-05-07T08:35:32.657Z,44.63
2019-05-07T08:36:32.972Z,44.43
2019-05-07T08:37:32.040Z,43.60
2019-05-07T08:38:32.631Z,44.73
2019-05-07T08:39:32.545Z,45.01
2019-05-07T08:40:32.544Z,45.01
2019-05-07T08:41:31.940Z,45.21
2019-05-07T08:42:32.005Z,43.99
2019-05-07T08:43:32.222Z,44.67
2019-05-07T08:44:32.538Z,44.97
2019-05-07T08:45:32.639Z,43.36
2019-05-07T08:46:32.767Z,43.34
2019-05-07T08:47:31.936Z,43.14
2019-05-07T08:48:32.045Z,43.64
2019-05-07T08:49:36.904Z,43.14
2019-05-07T08:50:32.672Z,43.76
2019-05-07T08:51:32.599Z,43.24
2019-05-07T08:52:32.558Z,44.17
2019-05-07T08:53:32.705Z,42.55
2019-05-07T08:54:32.109Z,43.36
2019-05-07T08:55:32.232Z,43.26
2019-05-07T08:56:31.895Z,43.06
2019-05-07T08:57:31.904Z,43.26
2019-05-07T08:58:31.741Z,44.17
2019-05-07T08:59:31.923Z,43.56
2019-05-07T09:00:32.425Z,43.66
2019-05-07T09:01:32.425Z,43.96
2019-05-07T09:02:32.441Z,42.25
2019-05-07T09:03:32.308Z,41.95
2019-05-07T09:04:32.554Z,42.25
2019-05-07T09:05:32.306Z,42.86
2019-05-07T09:06:32.262Z,42.55
2019-05-07T09:07:32.225Z,42.86
2019-05-07T09:08:32.133Z,42.07
2019-05-07T09:09:32.465Z,41.25
2019-05-07T09:10:32.507Z,43.08
2019-05-07T09:11:32.083Z,43.08
2019-05-07T09:12:31.862Z,42.07
2019-05-07T09:13:30.361Z,41.97
2019-05-07T09:14:32.036Z,42.27
2019-05-07T09:15:31.999Z,42.38
2019-05-07T09:16:31.930Z,42.25
2019-05-07T09:17:31.844Z,41.45
2019-05-07T09:18:32.178Z,41.97
2019-05-07T09:19:32.201Z,42.46
2019-05-07T09:20:32.164Z,42.05
2019-05-07T09:21:32.205Z,42.25
2019-05-07T09:22:32.158Z,42.25
2019-05-07T09:23:31.970Z,41.57
2019-05-07T09:24:30.260Z,41.06
2019-05-07T09:25:32.406Z,41.27
2019-05-07T09:26:32.229Z,40.86
2019-05-07T09:27:30.209Z,41.15
2019-05-07T09:28:32.555Z,41.57
2019-05-07T09:29:32.232Z,41.27
2019-05-07T09:30:32.496Z,41.17
2019-05-07T09:31:32.108Z,42.18
2019-05-07T09:32:32.478Z,41.79
2019-05-07T09:33:32.035Z,43.88
2019-05-07T09:34:32.563Z,44.29
2019-05-07T09:35:31.953Z,43.99
2019-05-07T09:36:32.130Z,43.76
2019-05-07T09:37:32.418Z,44.04
2019-05-07T09:38:30.087Z,42.74
2019-05-07T09:39:32.315Z,42.13
2019-05-07T09:40:31.897Z,43.52
2019-05-07T09:41:30.050Z,42.11
2019-05-07T09:42:30.047Z,44.51
2019-05-07T09:43:32.286Z,44.20
2019-05-07T09:44:30.017Z,42.10
2019-05-07T09:45:30.032Z,43.38
2019-05-07T09:46:29.999Z,41.77
2019-05-07T09:47:32.298Z,42.07
2019-05-07T09:48:29.982Z,44.08
2019-05-07T09:49:29.968Z,42.35
2019-05-07T09:50:32.308Z,41.96
2019-05-07T09:51:32.028Z,43.56
2019-05-07T09:52:31.918Z,43.86
2019-05-07T09:53:32.008Z,43.44
2019-05-07T09:54:32.152Z,43.14
2019-05-07T09:55:32.314Z,43.04
2019-05-07T09:56:31.879Z,43.12
2019-05-07T09:57:31.525Z,42.91
2019-05-07T09:58:36.547Z,42.80
2019-05-07T09:59:32.504Z,42.69
2019-05-07T10:00:31.817Z,42.69
2019-05-07T10:01:31.452Z,42.57
2019-05-07T10:02:31.830Z,42.68
2019-05-07T10:03:32.182Z,41.67
2019-05-07T10:04:29.797Z,41.38
2019-05-07T10:05:31.936Z,41.77
2019-05-07T10:06:31.931Z,42.27
2019-05-07T10:07:32.209Z,41.97
2019-05-07T10:08:31.703Z,41.55
2019-05-07T10:09:29.749Z,41.88
2019-05-07T10:10:29.752Z,41.05
2019-05-07T10:11:29.720Z,41.66
2019-05-07T10:12:29.708Z,41.66
2019-05-07T10:13:29.698Z,41.75
2019-05-07T10:14:29.686Z,41.93
2019-05-07T10:15:29.695Z,40.93
2019-05-07T10:16:29.664Z,40.63
2019-05-07T10:17:29.664Z,40.63
2019-05-07T10:18:31.697Z,41.13
2019-05-07T10:19:29.635Z,41.13
2019-05-07T10:20:29.644Z,41.13
2019-05-07T10:21:29.608Z,41.02
2019-05-07T10:22:31.973Z,40.52
2019-05-07T10:23:29.608Z,41.41
2019-05-07T10:24:29.576Z,40.52
2019-05-07T10:25:29.590Z,41.02
2019-05-07T10:26:29.552Z,40.81
2019-05-07T10:27:29.542Z,40.61
2019-05-07T10:28:29.555Z,40.71
2019-05-07T10:29:29.519Z,40.81
2019-05-07T10:30:29.509Z,40.31
2019-05-07T10:31:31.873Z,40.22
2019-05-07T10:32:29.486Z,41.11
2019-05-07T10:33:29.479Z,39.91
2019-05-07T10:34:29.467Z,40.31
2019-05-07T10:35:31.673Z,40.61
2019-05-07T10:36:29.464Z,40.91
2019-05-07T10:37:31.660Z,41.52
2019-05-07T10:38:29.419Z,40.99
2019-05-07T10:39:29.489Z,40.99
2019-05-07T10:40:29.521Z,40.59
2019-05-07T10:41:31.820Z,41.49
2019-05-07T10:42:29.452Z,40.69
2019-05-07T10:43:29.421Z,40.80
2019-05-07T10:44:29.373Z,40.99
2019-05-07T10:45:29.355Z,40.80
2019-05-07T10:46:29.360Z,40.59
2019-05-07T10:47:29.321Z,40.89
2019-05-07T10:48:29.307Z,40.89
2019-05-07T10:49:29.304Z,40.89
2019-05-07T10:50:36.293Z,40.89
2019-05-07T10:51:32.127Z,40.69
2019-05-07T10:52:29.265Z,40.59
2019-05-07T10:53:29.269Z,40.99
2019-05-07T10:54:29.242Z,41.08
2019-05-07T10:55:29.233Z,41.09
2019-05-07T10:56:29.243Z,40.50
2019-05-07T10:57:29.212Z,40.30
2019-05-07T10:58:29.248Z,40.30
2019-05-07T10:59:29.185Z,39.50
2019-05-07T11:00:29.210Z,39.69
2019-05-07T11:01:29.185Z,40.50
2019-05-07T11:02:29.153Z,39.67
2019-05-07T11:03:29.145Z,40.28
2019-05-07T11:04:40.276Z,40.08
2019-05-07T11:05:32.414Z,40.28
2019-05-07T11:06:29.139Z,40.78
2019-05-07T11:07:29.136Z,40.28
2019-05-07T11:08:29.090Z,40.37
2019-05-07T11:09:29.078Z,40.47
2019-05-07T11:10:29.070Z,40.17
2019-05-07T11:11:29.055Z,40.17
2019-05-07T11:12:29.079Z,40.17
2019-05-07T11:13:29.031Z,39.67
2019-05-07T11:14:29.184Z,39.87
2019-05-07T11:15:29.131Z,39.67
2019-05-07T11:16:29.099Z,39.67
2019-05-07T11:17:29.689Z,39.48
2019-05-07T11:18:28.995Z,39.78
2019-05-07T11:19:29.028Z,39.78
2019-05-07T11:20:28.957Z,39.76
2019-05-07T11:21:28.946Z,39.65
2019-05-07T11:22:28.954Z,39.65
2019-05-07T11:23:28.919Z,40.16
2019-05-07T11:24:28.912Z,39.95
2019-05-07T11:25:28.900Z,39.43
2019-05-07T11:26:28.888Z,40.34
2019-05-07T11:27:28.901Z,39.43
2019-05-07T11:28:28.866Z,39.43
2019-05-07T11:29:28.864Z,39.64
2019-05-07T11:30:28.855Z,39.62
2019-05-07T11:31:28.832Z,39.22
2019-05-07T11:32:28.890Z,39.54
2019-05-07T11:33:28.810Z,39.64
2019-05-07T11:34:28.799Z,39.43
2019-05-07T11:35:28.791Z,40.04
2019-05-07T11:36:28.778Z,39.74
2019-05-07T11:37:28.850Z,40.04
2019-05-07T11:38:28.753Z,39.43
2019-05-07T11:39:28.743Z,38.94
2019-05-07T11:40:28.731Z,39.24
2019-05-07T11:41:28.721Z,39.14
2019-05-07T11:42:28.731Z,38.34
2019-05-07T11:43:28.698Z,38.24
2019-05-07T11:44:28.691Z,38.44
2019-05-07T11:45:28.701Z,38.44
2019-05-07T11:46:28.673Z,38.74
2019-05-07T11:47:28.680Z,39.34
2019-05-07T11:48:28.644Z,39.43
2019-05-07T11:49:28.653Z,38.84
2019-05-07T11:50:28.626Z,38.72
2019-05-07T11:51:28.613Z,37.94
2019-05-07T11:52:28.601Z,37.74
2019-05-07T11:53:28.609Z,38.24
2019-05-07T11:54:28.587Z,37.94
2019-05-07T11:55:28.566Z,38.12
2019-05-07T11:56:28.555Z,37.64
2019-05-07T11:57:28.543Z,37.54
2019-05-07T11:58:28.556Z,37.34
2019-05-07T11:59:28.522Z,35.85
2019-05-07T12:00:28.514Z,35.54
2019-05-07T12:01:43.073Z,36.44
2019-05-07T12:02:31.926Z,36.44
2019-05-07T12:03:28.499Z,37.24
2019-05-07T12:04:28.469Z,36.84
2019-05-07T12:05:28.456Z,36.54
2019-05-07T12:06:28.443Z,36.04
2019-05-07T12:07:28.438Z,36.54
2019-05-07T12:08:39.303Z,36.54
2019-05-07T12:09:29.412Z,36.04
2019-05-07T12:10:28.403Z,36.24
2019-05-07T12:11:28.388Z,36.54
2019-05-07T12:12:28.378Z,36.24
2019-05-07T12:13:28.392Z,35.64
2019-05-07T12:14:31.783Z,35.64
2019-05-07T12:15:29.345Z,35.94
2019-05-07T12:16:28.334Z,36.06
2019-05-07T12:17:28.325Z,36.04
2019-05-07T12:18:28.336Z,35.96
2019-05-07T12:19:28.304Z,35.74
2019-05-07T12:20:28.293Z,35.66
2019-05-07T12:21:28.279Z,35.76
2019-05-07T12:22:28.269Z,35.94
2019-05-07T12:23:28.278Z,35.35
2019-05-07T12:24:28.249Z,35.94
2019-05-07T12:25:28.237Z,35.54
2019-05-07T12:26:28.227Z,35.86
2019-05-07T12:27:28.213Z,35.14
2019-05-07T12:28:28.223Z,34.84
2019-05-07T12:29:28.192Z,35.05
2019-05-07T12:30:28.179Z,35.05
2019-05-07T12:31:28.173Z,34.84
2019-05-07T12:32:28.158Z,34.96
2019-05-07T12:33:28.174Z,34.94
2019-05-07T12:34:28.144Z,35.54
2019-05-07T12:35:28.147Z,35.86
2019-05-07T12:36:28.114Z,36.56
2019-05-07T12:37:28.102Z,36.46
2019-05-07T12:38:28.090Z,37.36
2019-05-07T12:39:28.101Z,37.06
2019-05-07T12:40:28.069Z,36.96
2019-05-07T12:41:28.058Z,37.76
2019-05-07T12:42:28.051Z,37.46
2019-05-07T12:43:28.037Z,37.56
2019-05-07T12:44:28.050Z,37.56
2019-05-07T12:45:28.015Z,37.26
2019-05-07T12:46:28.004Z,37.06
2019-05-07T12:47:27.993Z,37.26
2019-05-07T12:48:27.981Z,37.16
2019-05-07T12:49:27.991Z,37.26
2019-05-07T12:50:27.961Z,37.26
2019-05-07T12:51:36.306Z,37.76
2019-05-07T12:52:28.940Z,37.36